Flight Track Log - Related Links

Times and Time Zones

All times are in EDT time to prevent confusion due to time zone crossing. See the N779NC flight status page for this flight to view local times or setup timezone preferences in your user account.

Time Position Orientation Groundspeed Altitude Reporting Facility
EDT Latitude Longitude Course Direction KTS MPH feet Rate Location/Type
Fri 03:58:33 PM 42.2008 -83.3889 292° West 153 176 1,400  Level Cleveland Center
Fri 04:00:04 PM 42.1403 -83.4731 226° Southwest 234 269 4,300 1,974 Climbing Cleveland Center
Fri 04:01:00 PM 42.3005 -83.7361 285° West  Level FlightAware Approximate
Fri 04:01:05 PM 42.1219 -83.5450 251° West 254 292 6,400  Level Cleveland Center
Fri 04:02:00 PM 42.3315 -83.8661 292° West  Level FlightAware Approximate
Fri 04:02:06 PM 42.1742 -83.6147 315° West 255 293 9,000  Level Cleveland Center
Fri 04:02:55 PM 42.2125 -83.6700 313° West 270 311 10,200 1,761 Climbing Cleveland Center
Fri 04:03:00 PM 42.3696 -83.9930 292° West  Level FlightAware Approximate
Fri 04:03:55 PM 42.2647 -83.7397 315° West 298 343 12,200  Level Cleveland Center
Fri 04:04:00 PM 42.4077 -84.1199 292° West  Level FlightAware Approximate
Fri 04:04:55 PM 42.3247 -83.8269 313° West 308 354 13,600  Level Cleveland Center
Fri 04:05:55 PM 42.3889 -83.9203 313° West 321 369 15,400 1,700 Climbing Cleveland Center
Fri 04:06:55 PM 42.4250 -84.0375 293° West 337 388 17,000 1,500 Climbing Cleveland Center
Fri 04:07:55 PM 42.4106 -84.1689 262° West 328 377 18,400 1,500 Climbing Cleveland Center
Fri 04:08:55 PM 42.4103 -84.3097 270° West 351 404 20,000 1,500 Climbing Cleveland Center
Fri 04:09:55 PM 42.4200 -84.4536 275° West 377 434 21,400 1,400 Climbing Cleveland Center
Fri 04:10:55 PM 42.4339 -84.6008 277° West 389 448 22,800 1,467 Climbing Cleveland Center
Fri 04:11:25 PM 42.4425 -84.6708 279° West 395 455 23,600 1,370 Climbing Chicago Center
Fri 04:12:27 PM 42.4558 -84.8197 277° West 399 459 24,900 1,694 Climbing Chicago Center
Fri 04:13:29 PM 42.4700 -84.9672 277° West 398 458 27,100 1,500 Climbing Chicago Center
Fri 04:14:31 PM 42.4761 -85.1075 273° West 380 437 28,000 341 Climbing Chicago Center
Fri 04:15:32 PM 42.4717 -85.2669 268° West 357 411 27,800 -780 Descending Chicago Center
Fri 04:16:34 PM 42.5261 -85.3781 304° West 363 418 26,400 -1,016 Descending Chicago Center
Fri 04:17:36 PM 42.6028 -85.4800 316° Northwest 382 440 25,700 -1,355 Descending Chicago Center
Fri 04:18:38 PM 42.6700 -85.5825 312° West 367 422 23,600 -2,032 Descending Chicago Center
Fri 04:19:40 PM 42.7342 -85.6853 310° West 358 412 21,500 -1,742 Descending Chicago Center
Fri 04:20:42 PM 42.7833 -85.7953 301° West 344 396 20,000 -726 Descending Chicago Center
Fri 04:21:44 PM 42.7681 -85.9122 260° West 317 365 20,000  Level Chicago Center
Fri 04:22:46 PM 42.7331 -86.0514 251° West 321 369 20,000  Level Chicago Center
Fri 04:23:48 PM 42.7033 -86.1742 252° West 336 387 20,000  Level Chicago Center
Fri 04:24:50 PM 42.6700 -86.3131 252° West 377 434 20,000  Level Chicago Center
Fri 04:25:52 PM 42.6408 -86.4531 254° West 385 443 20,000 -532 Level Chicago Center
Fri 04:26:54 PM 42.6150 -86.5958 256° West 389 448 18,900 -1,452 Descending Chicago Center
Fri 04:27:56 PM 42.5944 -86.7353 259° West 380 437 17,000 -2,323 Descending Chicago Center
Fri 04:28:58 PM 42.5692 -86.8658 255° West 361 415 14,100 -2,952 Descending Chicago Center
Fri 04:30:00 PM 42.5253 -87.0172 249° West 357 411 10,900 -1,984 Descending Chicago Center
Fri 04:31:02 PM 42.4833 -87.1286 243° Southwest 344 396 10,000 -919 Descending Chicago Center
Fri 04:32:04 PM 42.4528 -87.2272 247° West 289 333 9,000 -484 Descending Chicago Center
Fri 04:33:06 PM 42.4178 -87.3200 243° Southwest 282 325 9,000 -532 Level Chicago Center
Fri 04:34:08 PM 42.3839 -87.4092 243° Southwest 275 316 7,900 -968 Descending Chicago Center
Fri 04:35:10 PM 42.3383 -87.5125 239° Southwest 267 307 7,000 -435 Descending Chicago Center
Fri 04:36:12 PM 42.2861 -87.5808 224° Southwest 266 306 7,000 -532 Level Chicago Center
Fri 04:37:14 PM 42.2361 -87.6325 217° Southwest 233 268 5,900 -976 Descending Chicago Center
Fri 04:38:15 PM 42.1883 -87.6853 219° Southwest 224 258 5,000 -780 Descending Chicago Center
Fri 04:39:17 PM 42.1456 -87.7344 220° Southwest 207 238 4,300 -823 Descending Chicago Center
Fri 04:40:19 PM 42.1011 -87.7831 219° Southwest 183 211 3,300 -968 Descending Chicago Center

Login

Don't have an account? Register now (free) for customized features, flight alerts, and more!